Pays
Station

 

Conditions  météo  pour  Pescara  -  Italie    Italie

  
14 °C
    
 
 

METAR pour Pescara :

LIBP 221550Z VRB01KT 9999 FEW050 14/06 Q1022

 

Voici le bulletin pour Pescara - Italie.
 
Le bulletin a été fait il y a 58 minutes, à 15:50 UTC .
Le vent soufflait à la vitesse de 0.5 mètres par seconde de direction variable.
 
La température était de 14 °C, avec un point de rosée à 6 °C.
La pression atmosphérique était de 1022 hPa.
L'humidité relative était de 58.5%.
 
Il y avait 1 à 2/8ème de nébulosité à une hauteur de 1524 mètres.
 
La visibilité globale était de supérieure à 10 kilomètres.
 

 
 
 

Pays :   A   B   C   D   E   F   G   H   I   J   K   L   M   N   O   P   Q   R   S   T   U   V   W   Y   Z

 

Partenaires :  Info Météo avec Met'info
Météo Marine avec MeteoMarine.net
Infos Site  |  Infos Légales  |  Crédits  |  Confidentialité
Contactez-nous  |  Ajouter aux favoris
© 2013-2019 METAR - Tous droits réservés